aviador You're here:

KWVL Decoded Metar

WATERVILLE in ME, USA
Report Time2018-05-26 14:56:00
UTC Time2018-05-26 15:43:48
Flight Rules vfr VFR
Wind230° at 04 kt
W.Decomp.*RWY 23: 3.8 kt HW 1.2 kt RCW
RWY 32: 1.2 kt HW 3.8 kt LCW
W.Rank230° ranks 20
Current wind is below 230° avg. (5.6)
Visibility9999 m
Phenomena:Light Rain
Clouds:N/A
Expected CloudBase > 800 ft AGL from Temp-Dew spread
CeilingNone
Temp20°C (ISA +6)
Dew Point18°C (88% RH)
QNH1006 hPa
Density Alt1,506 ft
Elevation331 ft
Report Wrong Elevation
Raw Report
KWVL 261456Z AUTO 23004KT 10SM -RA CLR 20/18 A2971 RMK AO2 SLP085
P0002 60002 T02000178 53018 $=

Extra information for KWVL:More info

Metar Taf Metar & Taf Last 4 Metars F.Rules Stats Wind Profile Meteogram Temp Stats Airport Information Weather charts Add Link Nearby VenuesMetar ALERT Operation Metar Decoded Social comments

AIRNAV info for KWVL